sensor_id;sensor_type;location;lat;lon;timestamp;pressure;altitude;pressure_sealevel;temperature;humidity
12781;BME280;6454;43.304;24.344;2023-04-29T00:01:30;100459.75;;;6.52;76.54
12781;BME280;6454;43.304;24.344;2023-04-29T00:03:57;100463.28;;;6.52;77.38
12781;BME280;6454;43.304;24.344;2023-04-29T00:06:24;100466.84;;;6.58;77.58
12781;BME280;6454;43.304;24.344;2023-04-29T00:08:51;100463.44;;;6.67;77.71
12781;BME280;6454;43.304;24.344;2023-04-29T00:11:17;100456.84;;;6.80;77.46
12781;BME280;6454;43.304;24.344;2023-04-29T00:13:46;100456.94;;;6.90;76.71
12781;BME280;6454;43.304;24.344;2023-04-29T00:16:12;100449.91;;;6.89;76.39
12781;BME280;6454;43.304;24.344;2023-04-29T00:18:39;100453.38;;;6.84;76.73
12781;BME280;6454;43.304;24.344;2023-04-29T00:21:06;100448.53;;;6.86;76.80
12781;BME280;6454;43.304;24.344;2023-04-29T00:23:33;100453.69;;;6.88;77.13
12781;BME280;6454;43.304;24.344;2023-04-29T00:26:00;100451.59;;;6.95;77.13
12781;BME280;6454;43.304;24.344;2023-04-29T00:28:27;100441.47;;;7.07;76.79
12781;BME280;6454;43.304;24.344;2023-04-29T00:30:55;100430.16;;;7.10;76.52
12781;BME280;6454;43.304;24.344;2023-04-29T00:33:22;100431.78;;;7.11;76.24
12781;BME280;6454;43.304;24.344;2023-04-29T00:35:49;100434.97;;;7.08;76.76
12781;BME280;6454;43.304;24.344;2023-04-29T00:38:16;100419.94;;;7.12;76.22
12781;BME280;6454;43.304;24.344;2023-04-29T00:40:43;100421.59;;;7.18;76.16
12781;BME280;6454;43.304;24.344;2023-04-29T00:43:10;100414.56;;;7.17;75.62
12781;BME280;6454;43.304;24.344;2023-04-29T00:45:36;100415.63;;;7.16;75.75
12781;BME280;6454;43.304;24.344;2023-04-29T00:48:05;100418.00;;;7.07;76.02
12781;BME280;6454;43.304;24.344;2023-04-29T00:50:32;100421.47;;;7.03;76.34
12781;BME280;6454;43.304;24.344;2023-04-29T00:52:59;100420.16;;;7.10;76.11
12781;BME280;6454;43.304;24.344;2023-04-29T00:55:27;100411.06;;;7.17;75.95
12781;BME280;6454;43.304;24.344;2023-04-29T00:57:54;100419.72;;;7.19;75.61
12781;BME280;6454;43.304;24.344;2023-04-29T01:00:21;100416.47;;;7.17;75.77
12781;BME280;6454;43.304;24.344;2023-04-29T01:02:49;100419.63;;;7.08;76.38
12781;BME280;6454;43.304;24.344;2023-04-29T01:05:17;100422.41;;;7.19;75.87
12781;BME280;6454;43.304;24.344;2023-04-29T01:07:50;100419.44;;;7.15;75.76
12781;BME280;6454;43.304;24.344;2023-04-29T01:10:23;100414.53;;;7.12;75.52
12781;BME280;6454;43.304;24.344;2023-04-29T01:12:58;100419.03;;;7.01;76.11
12781;BME280;6454;43.304;24.344;2023-04-29T01:15:32;100420.34;;;6.99;76.17
12781;BME280;6454;43.304;24.344;2023-04-29T01:18:04;100416.31;;;7.01;76.22
12781;BME280;6454;43.304;24.344;2023-04-29T01:20:35;100419.94;;;7.12;75.76
12781;BME280;6454;43.304;24.344;2023-04-29T01:23:03;100428.03;;;7.12;75.62
12781;BME280;6454;43.304;24.344;2023-04-29T01:25:31;100413.84;;;6.95;76.03
12781;BME280;6454;43.304;24.344;2023-04-29T01:28:04;100414.34;;;6.92;76.02
12781;BME280;6454;43.304;24.344;2023-04-29T01:30:41;100413.50;;;6.86;76.42
12781;BME280;6454;43.304;24.344;2023-04-29T01:33:15;100413.25;;;6.88;76.70
12781;BME280;6454;43.304;24.344;2023-04-29T01:35:55;100407.13;;;6.97;75.78
12781;BME280;6454;43.304;24.344;2023-04-29T01:38:29;100405.25;;;6.98;75.38
12781;BME280;6454;43.304;24.344;2023-04-29T01:41:09;100406.13;;;6.77;76.36
12781;BME280;6454;43.304;24.344;2023-04-29T01:43:37;100413.66;;;6.75;76.63
12781;BME280;6454;43.304;24.344;2023-04-29T01:46:05;100414.44;;;6.70;76.96
12781;BME280;6454;43.304;24.344;2023-04-29T01:48:35;100405.63;;;6.80;76.69
12781;BME280;6454;43.304;24.344;2023-04-29T01:51:02;100405.41;;;6.86;75.86
12781;BME280;6454;43.304;24.344;2023-04-29T01:53:30;100410.09;;;6.69;76.65
12781;BME280;6454;43.304;24.344;2023-04-29T01:55:57;100379.34;;;6.43;77.18
12781;BME280;6454;43.304;24.344;2023-04-29T01:58:25;100406.28;;;6.65;77.58
12781;BME280;6454;43.304;24.344;2023-04-29T02:00:52;100382.47;;;6.57;77.50
12781;BME280;6454;43.304;24.344;2023-04-29T02:03:19;100395.03;;;6.73;77.68
12781;BME280;6454;43.304;24.344;2023-04-29T02:05:46;100395.13;;;6.83;77.00
12781;BME280;6454;43.304;24.344;2023-04-29T02:08:14;100400.47;;;6.78;77.19
12781;BME280;6454;43.304;24.344;2023-04-29T02:10:46;100404.75;;;6.74;77.31
12781;BME280;6454;43.304;24.344;2023-04-29T02:13:16;100394.28;;;6.78;77.40
12781;BME280;6454;43.304;24.344;2023-04-29T02:15:44;100387.81;;;6.79;77.25
12781;BME280;6454;43.304;24.344;2023-04-29T02:18:11;100391.38;;;6.84;77.07
12781;BME280;6454;43.304;24.344;2023-04-29T02:20:38;100393.06;;;6.90;76.47
12781;BME280;6454;43.304;24.344;2023-04-29T02:23:05;100396.03;;;6.94;76.64
12781;BME280;6454;43.304;24.344;2023-04-29T02:25:31;100394.84;;;6.80;77.39
12781;BME280;6454;43.304;24.344;2023-04-29T02:27:58;100393.59;;;6.66;77.86
12781;BME280;6454;43.304;24.344;2023-04-29T02:30:25;100392.16;;;6.58;78.26
12781;BME280;6454;43.304;24.344;2023-04-29T02:32:53;100392.28;;;6.68;78.08
12781;BME280;6454;43.304;24.344;2023-04-29T02:35:20;100393.41;;;6.72;77.61
12781;BME280;6454;43.304;24.344;2023-04-29T02:37:47;100390.41;;;6.69;77.57
12781;BME280;6454;43.304;24.344;2023-04-29T02:40:13;100389.34;;;6.70;77.89
12781;BME280;6454;43.304;24.344;2023-04-29T02:42:40;100383.34;;;6.63;78.12
12781;BME280;6454;43.304;24.344;2023-04-29T02:45:08;100381.50;;;6.68;77.97
12781;BME280;6454;43.304;24.344;2023-04-29T02:47:35;100369.97;;;6.73;77.23
12781;BME280;6454;43.304;24.344;2023-04-29T02:50:04;100380.81;;;6.78;77.33
12781;BME280;6454;43.304;24.344;2023-04-29T02:52:31;100386.38;;;6.71;77.75
12781;BME280;6454;43.304;24.344;2023-04-29T02:54:58;100384.19;;;6.68;77.89
12781;BME280;6454;43.304;24.344;2023-04-29T02:57:25;100391.81;;;6.76;77.65
12781;BME280;6454;43.304;24.344;2023-04-29T02:59:53;100387.75;;;6.74;77.71
12781;BME280;6454;43.304;24.344;2023-04-29T03:02:20;100393.75;;;6.81;76.88
12781;BME280;6454;43.304;24.344;2023-04-29T03:04:47;100395.88;;;6.79;76.72
12781;BME280;6454;43.304;24.344;2023-04-29T03:07:15;100400.22;;;6.80;77.32
12781;BME280;6454;43.304;24.344;2023-04-29T03:09:42;100407.19;;;6.76;77.12
12781;BME280;6454;43.304;24.344;2023-04-29T03:12:09;100409.63;;;6.77;76.89
12781;BME280;6454;43.304;24.344;2023-04-29T03:14:36;100403.38;;;6.72;77.16
12781;BME280;6454;43.304;24.344;2023-04-29T03:17:02;100410.47;;;6.78;76.68
12781;BME280;6454;43.304;24.344;2023-04-29T03:19:29;100413.59;;;6.70;76.96
12781;BME280;6454;43.304;24.344;2023-04-29T03:21:56;100410.81;;;6.60;77.56
12781;BME280;6454;43.304;24.344;2023-04-29T03:24:24;100413.94;;;6.52;78.07
12781;BME280;6454;43.304;24.344;2023-04-29T03:26:51;100407.94;;;6.44;78.24
12781;BME280;6454;43.304;24.344;2023-04-29T03:29:18;100409.25;;;6.42;78.79
12781;BME280;6454;43.304;24.344;2023-04-29T03:31:45;100417.13;;;6.48;78.76
12781;BME280;6454;43.304;24.344;2023-04-29T03:34:11;100422.53;;;6.48;78.47
12781;BME280;6454;43.304;24.344;2023-04-29T03:36:39;100434.84;;;6.39;79.30
12781;BME280;6454;43.304;24.344;2023-04-29T03:39:05;100434.41;;;6.47;79.78
12781;BME280;6454;43.304;24.344;2023-04-29T03:41:33;100436.81;;;6.49;79.91
12781;BME280;6454;43.304;24.344;2023-04-29T03:44:00;100433.91;;;6.51;79.88
12781;BME280;6454;43.304;24.344;2023-04-29T03:46:27;100439.38;;;6.61;79.36
12781;BME280;6454;43.304;24.344;2023-04-29T03:48:54;100437.81;;;6.65;79.01
12781;BME280;6454;43.304;24.344;2023-04-29T03:51:21;100437.75;;;6.60;78.66
12781;BME280;6454;43.304;24.344;2023-04-29T03:53:48;100385.66;;;6.27;78.36
12781;BME280;6454;43.304;24.344;2023-04-29T03:56:16;100439.63;;;6.59;78.55
12781;BME280;6454;43.304;24.344;2023-04-29T03:58:44;100435.94;;;6.65;78.57
12781;BME280;6454;43.304;24.344;2023-04-29T04:01:11;100443.88;;;6.77;78.12
12781;BME280;6454;43.304;24.344;2023-04-29T04:03:38;100441.00;;;6.88;77.76
12781;BME280;6454;43.304;24.344;2023-04-29T04:06:05;100439.03;;;6.79;78.25
12781;BME280;6454;43.304;24.344;2023-04-29T04:08:31;100449.88;;;6.84;78.60
12781;BME280;6454;43.304;24.344;2023-04-29T04:10:58;100441.81;;;6.89;78.61
12781;BME280;6454;43.304;24.344;2023-04-29T04:13:27;100446.03;;;7.06;78.55
12781;BME280;6454;43.304;24.344;2023-04-29T04:15:56;100443.16;;;7.18;78.62
12781;BME280;6454;43.304;24.344;2023-04-29T04:18:22;100429.91;;;7.11;78.53
12781;BME280;6454;43.304;24.344;2023-04-29T04:20:49;100456.81;;;7.38;78.80
12781;BME280;6454;43.304;24.344;2023-04-29T04:23:16;100453.16;;;7.49;78.22
12781;BME280;6454;43.304;24.344;2023-04-29T04:25:46;100442.59;;;7.43;77.44
12781;BME280;6454;43.304;24.344;2023-04-29T04:28:13;100453.19;;;7.54;77.79
12781;BME280;6454;43.304;24.344;2023-04-29T04:30:40;100444.31;;;7.59;77.40
12781;BME280;6454;43.304;24.344;2023-04-29T04:33:08;100449.94;;;7.52;77.00
12781;BME280;6454;43.304;24.344;2023-04-29T04:35:35;100438.34;;;7.57;77.40
12781;BME280;6454;43.304;24.344;2023-04-29T04:38:02;100437.28;;;7.58;77.14
12781;BME280;6454;43.304;24.344;2023-04-29T04:40:28;100437.28;;;7.58;77.13
12781;BME280;6454;43.304;24.344;2023-04-29T04:42:55;100445.16;;;7.64;77.19
12781;BME280;6454;43.304;24.344;2023-04-29T04:45:22;100434.44;;;7.74;76.57
12781;BME280;6454;43.304;24.344;2023-04-29T04:47:49;100439.59;;;7.81;76.57
12781;BME280;6454;43.304;24.344;2023-04-29T04:50:17;100437.16;;;7.79;76.13
12781;BME280;6454;43.304;24.344;2023-04-29T04:52:45;100437.16;;;7.79;76.33
12781;BME280;6454;43.304;24.344;2023-04-29T04:55:11;100442.56;;;7.79;76.38
12781;BME280;6454;43.304;24.344;2023-04-29T04:57:38;100449.38;;;7.87;76.77
12781;BME280;6454;43.304;24.344;2023-04-29T05:00:06;100446.75;;;8.02;76.45
12781;BME280;6454;43.304;24.344;2023-04-29T05:02:33;100447.53;;;8.03;75.84
12781;BME280;6454;43.304;24.344;2023-04-29T05:05:00;100450.00;;;8.04;75.87
12781;BME280;6454;43.304;24.344;2023-04-29T05:07:28;100448.09;;;8.00;75.86
12781;BME280;6454;43.304;24.344;2023-04-29T05:09:55;100442.69;;;8.00;75.99
12781;BME280;6454;43.304;24.344;2023-04-29T05:12:21;100439.75;;;8.11;75.81
12781;BME280;6454;43.304;24.344;2023-04-29T05:14:52;100427.94;;;8.22;75.22
12781;BME280;6454;43.304;24.344;2023-04-29T05:17:19;100433.38;;;8.27;75.43
12781;BME280;6454;43.304;24.344;2023-04-29T05:19:45;100426.06;;;8.28;75.28
12781;BME280;6454;43.304;24.344;2023-04-29T05:22:12;100428.53;;;8.34;75.45
12781;BME280;6454;43.304;24.344;2023-04-29T05:24:40;100435.59;;;8.46;75.68
12781;BME280;6454;43.304;24.344;2023-04-29T05:27:07;100433.75;;;8.61;75.64
12781;BME280;6454;43.304;24.344;2023-04-29T05:29:34;100434.31;;;8.68;74.92
12781;BME280;6454;43.304;24.344;2023-04-29T05:32:01;100427.31;;;8.77;74.70
12781;BME280;6454;43.304;24.344;2023-04-29T05:34:27;100422.44;;;8.74;74.20
12781;BME280;6454;43.304;24.344;2023-04-29T05:36:54;100429.47;;;8.85;73.50
12781;BME280;6454;43.304;24.344;2023-04-29T05:39:21;100431.38;;;9.00;73.06
12781;BME280;6454;43.304;24.344;2023-04-29T05:41:50;100431.97;;;9.17;72.70
12781;BME280;6454;43.304;24.344;2023-04-29T05:44:16;100431.41;;;9.30;72.48
12781;BME280;6454;43.304;24.344;2023-04-29T05:46:43;100425.16;;;9.45;71.75
12781;BME280;6454;43.304;24.344;2023-04-29T05:49:10;100426.81;;;9.51;72.41
12781;BME280;6454;43.304;24.344;2023-04-29T05:51:37;100425.16;;;9.65;71.92
12781;BME280;6454;43.304;24.344;2023-04-29T05:54:04;100410.47;;;9.91;71.54
12781;BME280;6454;43.304;24.344;2023-04-29T05:56:31;100411.00;;;9.98;70.60
12781;BME280;6454;43.304;24.344;2023-04-29T05:58:59;100409.34;;;10.12;71.59
12781;BME280;6454;43.304;24.344;2023-04-29T06:01:25;100404.44;;;10.19;71.22
12781;BME280;6454;43.304;24.344;2023-04-29T06:03:52;100411.47;;;10.25;70.31
12781;BME280;6454;43.304;24.344;2023-04-29T06:06:19;100413.59;;;10.33;69.93
12781;BME280;6454;43.304;24.344;2023-04-29T06:08:46;100412.44;;;10.45;69.44
12781;BME280;6454;43.304;24.344;2023-04-29T06:11:13;100414.84;;;10.56;69.58
12781;BME280;6454;43.304;24.344;2023-04-29T06:13:40;100408.00;;;10.69;70.17
12781;BME280;6454;43.304;24.344;2023-04-29T06:16:08;100409.00;;;10.78;69.33
12781;BME280;6454;43.304;24.344;2023-04-29T06:18:35;100407.53;;;10.95;68.43
12781;BME280;6454;43.304;24.344;2023-04-29T06:21:02;100407.03;;;11.22;69.00
12781;BME280;6454;43.304;24.344;2023-04-29T06:23:29;100402.00;;;11.39;67.45
12781;BME280;6454;43.304;24.344;2023-04-29T06:25:57;100404.84;;;11.58;68.13
12781;BME280;6454;43.304;24.344;2023-04-29T06:28:24;100401.06;;;11.83;67.66
12781;BME280;6454;43.304;24.344;2023-04-29T06:30:50;100401.31;;;12.10;66.69
12781;BME280;6454;43.304;24.344;2023-04-29T06:33:19;100399.28;;;12.39;65.56
12781;BME280;6454;43.304;24.344;2023-04-29T06:35:45;100398.50;;;12.57;63.32
12781;BME280;6454;43.304;24.344;2023-04-29T06:38:12;100395.53;;;12.59;62.63
12781;BME280;6454;43.304;24.344;2023-04-29T06:40:39;100392.28;;;12.75;62.71
12781;BME280;6454;43.304;24.344;2023-04-29T06:43:06;100391.00;;;12.86;61.77
12781;BME280;6454;43.304;24.344;2023-04-29T06:45:32;100394.69;;;12.96;60.96
12781;BME280;6454;43.304;24.344;2023-04-29T06:47:59;100390.25;;;13.00;61.05
12781;BME280;6454;43.304;24.344;2023-04-29T06:50:27;100389.63;;;13.08;60.33
12781;BME280;6454;43.304;24.344;2023-04-29T06:52:54;100385.19;;;13.12;60.46
12781;BME280;6454;43.304;24.344;2023-04-29T06:55:21;100385.75;;;13.27;60.05
12781;BME280;6454;43.304;24.344;2023-04-29T06:57:48;100384.09;;;13.45;59.28
12781;BME280;6454;43.304;24.344;2023-04-29T07:00:14;100381.59;;;13.62;58.96
12781;BME280;6454;43.304;24.344;2023-04-29T07:02:43;100374.53;;;13.75;58.37
12781;BME280;6454;43.304;24.344;2023-04-29T07:05:10;100380.91;;;13.97;55.44
12781;BME280;6454;43.304;24.344;2023-04-29T07:07:38;100351.53;;;13.94;54.06
12781;BME280;6454;43.304;24.344;2023-04-29T07:10:06;100379.09;;;14.34;53.29
12781;BME280;6454;43.304;24.344;2023-04-29T07:12:32;100380.41;;;14.50;52.03
12781;BME280;6454;43.304;24.344;2023-04-29T07:14:59;100371.09;;;14.51;50.80
12781;BME280;6454;43.304;24.344;2023-04-29T07:17:28;100369.28;;;14.82;50.20
12781;BME280;6454;43.304;24.344;2023-04-29T07:19:55;100375.72;;;15.08;47.99
12781;BME280;6454;43.304;24.344;2023-04-29T07:22:22;100370.72;;;15.24;48.52
12781;BME280;6454;43.304;24.344;2023-04-29T07:24:53;100379.25;;;15.31;48.20
12781;BME280;6454;43.304;24.344;2023-04-29T07:27:21;100373.50;;;15.32;46.61
12781;BME280;6454;43.304;24.344;2023-04-29T07:29:48;100379.66;;;15.38;47.37
12781;BME280;6454;43.304;24.344;2023-04-29T07:32:16;100379.59;;;15.52;45.70
12781;BME280;6454;43.304;24.344;2023-04-29T07:34:42;100385.38;;;15.50;45.25
12781;BME280;6454;43.304;24.344;2023-04-29T07:37:09;100379.59;;;15.52;44.20
12781;BME280;6454;43.304;24.344;2023-04-29T07:39:36;100371.44;;;15.60;43.15
12781;BME280;6454;43.304;24.344;2023-04-29T07:42:04;100373.00;;;15.53;43.63
12781;BME280;6454;43.304;24.344;2023-04-29T07:44:31;100372.75;;;15.63;43.80
12781;BME280;6454;43.304;24.344;2023-04-29T07:46:58;100363.75;;;15.71;43.02
12781;BME280;6454;43.304;24.344;2023-04-29T07:49:24;100371.06;;;15.84;43.92
12781;BME280;6454;43.304;24.344;2023-04-29T07:51:51;100363.03;;;15.87;44.70
12781;BME280;6454;43.304;24.344;2023-04-29T07:54:18;100369.19;;;16.01;43.45
12781;BME280;6454;43.304;24.344;2023-04-29T07:56:46;100362.44;;;15.99;42.75
12781;BME280;6454;43.304;24.344;2023-04-29T07:59:15;100366.06;;;16.25;47.23
12781;BME280;6454;43.304;24.344;2023-04-29T08:01:41;100367.34;;;16.28;43.72
12781;BME280;6454;43.304;24.344;2023-04-29T08:04:08;100357.53;;;16.44;44.93
12781;BME280;6454;43.304;24.344;2023-04-29T08:06:35;100359.78;;;16.50;44.13
12781;BME280;6454;43.304;24.344;2023-04-29T08:09:02;100354.88;;;16.69;44.97
12781;BME280;6454;43.304;24.344;2023-04-29T08:11:29;100356.94;;;16.81;44.47
12781;BME280;6454;43.304;24.344;2023-04-29T08:13:55;100352.09;;;16.78;44.88
12781;BME280;6454;43.304;24.344;2023-04-29T08:16:25;100347.28;;;16.84;45.98
12781;BME280;6454;43.304;24.344;2023-04-29T08:18:52;100351.47;;;16.98;45.58
12781;BME280;6454;43.304;24.344;2023-04-29T08:21:20;100340.81;;;16.88;44.62
12781;BME280;6454;43.304;24.344;2023-04-29T08:23:46;100348.25;;;17.05;44.61
12781;BME280;6454;43.304;24.344;2023-04-29T08:26:13;100351.47;;;17.07;44.54
12781;BME280;6454;43.304;24.344;2023-04-29T08:28:40;100346.59;;;17.21;47.12
12781;BME280;6454;43.304;24.344;2023-04-29T08:31:07;100338.84;;;17.23;44.58
12781;BME280;6454;43.304;24.344;2023-04-29T08:33:36;100341.56;;;17.31;44.73
12781;BME280;6454;43.304;24.344;2023-04-29T08:36:03;100284.22;;;17.01;46.64
12781;BME280;6454;43.304;24.344;2023-04-29T08:38:30;100341.97;;;17.68;48.36
12781;BME280;6454;43.304;24.344;2023-04-29T08:40:57;100346.44;;;17.81;42.21
12781;BME280;6454;43.304;24.344;2023-04-29T08:43:25;100338.75;;;18.03;44.42
12781;BME280;6454;43.304;24.344;2023-04-29T08:45:52;100338.75;;;18.03;45.29
12781;BME280;6454;43.304;24.344;2023-04-29T08:48:20;100350.09;;;18.23;43.70
12781;BME280;6454;43.304;24.344;2023-04-29T08:50:48;100341.72;;;18.19;40.99
12781;BME280;6454;43.304;24.344;2023-04-29T08:53:16;100335.66;;;18.34;40.78
12781;BME280;6454;43.304;24.344;2023-04-29T08:55:44;100297.91;;;18.23;40.20
12781;BME280;6454;43.304;24.344;2023-04-29T08:58:13;100332.53;;;18.65;40.12
12781;BME280;6454;43.304;24.344;2023-04-29T09:00:41;100276.59;;;18.49;38.42
12781;BME280;6454;43.304;24.344;2023-04-29T09:03:13;100324.44;;;18.89;37.99
12781;BME280;6454;43.304;24.344;2023-04-29T09:05:42;100322.19;;;19.03;38.45
12781;BME280;6454;43.304;24.344;2023-04-29T09:08:12;100302.47;;;19.01;38.68
12781;BME280;6454;43.304;24.344;2023-04-29T09:10:41;100330.97;;;19.29;37.00
12781;BME280;6454;43.304;24.344;2023-04-29T09:13:08;100319.91;;;19.50;36.72
12781;BME280;6454;43.304;24.344;2023-04-29T09:15:35;100312.72;;;19.70;36.00
12781;BME280;6454;43.304;24.344;2023-04-29T09:18:04;100310.78;;;19.82;37.19
12781;BME280;6454;43.304;24.344;2023-04-29T09:20:31;100309.50;;;19.68;35.00
12781;BME280;6454;43.304;24.344;2023-04-29T09:22:59;100249.53;;;19.49;35.65
12781;BME280;6454;43.304;24.344;2023-04-29T09:25:29;100310.44;;;20.08;35.49
12781;BME280;6454;43.304;24.344;2023-04-29T09:27:57;100310.66;;;20.27;35.48
12781;BME280;6454;43.304;24.344;2023-04-29T09:30:23;100228.41;;;19.77;34.94
12781;BME280;6454;43.304;24.344;2023-04-29T09:33:06;100293.31;;;20.39;33.64
12781;BME280;6454;43.304;24.344;2023-04-29T09:35:33;100244.53;;;20.15;33.40
12781;BME280;6454;43.304;24.344;2023-04-29T09:38:11;100284.34;;;20.42;34.40
12781;BME280;6454;43.304;24.344;2023-04-29T09:40:40;100279.41;;;20.35;34.12
12781;BME280;6454;43.304;24.344;2023-04-29T09:43:17;100281.38;;;20.35;34.16
12781;BME280;6454;43.304;24.344;2023-04-29T09:45:45;100284.00;;;20.19;32.98
12781;BME280;6454;43.304;24.344;2023-04-29T09:48:12;100275.53;;;20.12;32.63
12781;BME280;6454;43.304;24.344;2023-04-29T09:50:40;100277.16;;;20.25;33.32
12781;BME280;6454;43.304;24.344;2023-04-29T09:53:09;100241.69;;;20.12;34.08
12781;BME280;6454;43.304;24.344;2023-04-29T09:55:36;100273.25;;;20.14;33.28
12781;BME280;6454;43.304;24.344;2023-04-29T09:58:28;100273.50;;;19.85;32.39
12781;BME280;6454;43.304;24.344;2023-04-29T10:00:58;100276.84;;;19.66;32.89
12781;BME280;6454;43.304;24.344;2023-04-29T10:03:30;100264.66;;;19.67;34.02
12781;BME280;6454;43.304;24.344;2023-04-29T10:05:58;100266.63;;;19.79;33.81
12781;BME280;6454;43.304;24.344;2023-04-29T10:08:26;100254.31;;;20.01;33.97
12781;BME280;6454;43.304;24.344;2023-04-29T10:10:53;100253.00;;;20.22;34.89
12781;BME280;6454;43.304;24.344;2023-04-29T10:13:22;100252.00;;;20.15;32.98
12781;BME280;6454;43.304;24.344;2023-04-29T10:15:57;100249.81;;;20.32;33.81
12781;BME280;6454;43.304;24.344;2023-04-29T10:18:33;100243.59;;;20.35;33.19
12781;BME280;6454;43.304;24.344;2023-04-29T10:21:02;100242.66;;;20.43;32.27
12781;BME280;6454;43.304;24.344;2023-04-29T10:23:30;100239.97;;;20.59;33.05
12781;BME280;6454;43.304;24.344;2023-04-29T10:25:58;100235.16;;;20.56;32.48
12781;BME280;6454;43.304;24.344;2023-04-29T10:28:30;100223.97;;;20.65;32.46
12781;BME280;6454;43.304;24.344;2023-04-29T10:31:02;100214.94;;;20.52;32.90
12781;BME280;6454;43.304;24.344;2023-04-29T10:33:30;100192.13;;;20.24;33.11
12781;BME280;6454;43.304;24.344;2023-04-29T10:35:58;100223.63;;;20.38;32.32
12781;BME280;6454;43.304;24.344;2023-04-29T10:38:28;100218.31;;;20.45;33.14
12781;BME280;6454;43.304;24.344;2023-04-29T10:40:57;100227.22;;;20.54;32.97
12781;BME280;6454;43.304;24.344;2023-04-29T10:43:26;100221.31;;;20.68;32.77
12781;BME280;6454;43.304;24.344;2023-04-29T10:46:18;100210.19;;;20.65;32.63
12781;BME280;6454;43.304;24.344;2023-04-29T10:48:46;100223.59;;;20.94;31.69
12781;BME280;6454;43.304;24.344;2023-04-29T10:51:27;100228.91;;;20.87;31.08
12781;BME280;6454;43.304;24.344;2023-04-29T10:54:00;100213.38;;;20.67;30.20
12781;BME280;6454;43.304;24.344;2023-04-29T10:56:37;100214.31;;;20.71;31.13
12781;BME280;6454;43.304;24.344;2023-04-29T10:59:04;100215.19;;;20.75;30.91
12781;BME280;6454;43.304;24.344;2023-04-29T11:01:43;100211.84;;;20.97;32.45
12781;BME280;6454;43.304;24.344;2023-04-29T11:04:10;100202.31;;;20.94;32.80
12781;BME280;6454;43.304;24.344;2023-04-29T11:06:40;100206.59;;;20.92;30.73
12781;BME280;6454;43.304;24.344;2023-04-29T11:09:09;100210.50;;;20.91;32.52
12781;BME280;6454;43.304;24.344;2023-04-29T11:11:48;100210.78;;;20.86;30.74
12781;BME280;6454;43.304;24.344;2023-04-29T11:14:22;100182.78;;;20.56;29.60
12781;BME280;6454;43.304;24.344;2023-04-29T11:16:53;100205.97;;;20.83;29.71
12781;BME280;6454;43.304;24.344;2023-04-29T11:19:23;100203.31;;;21.02;29.78
12781;BME280;6454;43.304;24.344;2023-04-29T11:22:12;100162.47;;;20.92;28.96
12781;BME280;6454;43.304;24.344;2023-04-29T11:24:50;100197.09;;;21.05;28.93
12781;BME280;6454;43.304;24.344;2023-04-29T11:27:18;100194.97;;;21.14;30.27
12781;BME280;6454;43.304;24.344;2023-04-29T11:29:49;100198.06;;;20.97;27.44
12781;BME280;6454;43.304;24.344;2023-04-29T11:32:19;100193.78;;;20.99;29.64
12781;BME280;6454;43.304;24.344;2023-04-29T11:34:46;100197.94;;;21.05;29.43
12781;BME280;6454;43.304;24.344;2023-04-29T11:37:19;100202.47;;;21.13;30.42
12781;BME280;6454;43.304;24.344;2023-04-29T11:39:46;100202.44;;;21.29;30.58
12781;BME280;6454;43.304;24.344;2023-04-29T11:42:18;100194.88;;;21.42;29.35
12781;BME280;6454;43.304;24.344;2023-04-29T11:44:45;100184.25;;;21.59;28.94
12781;BME280;6454;43.304;24.344;2023-04-29T11:47:12;100184.34;;;21.78;29.76
12781;BME280;6454;43.304;24.344;2023-04-29T11:49:40;100166.66;;;21.48;29.76
12781;BME280;6454;43.304;24.344;2023-04-29T11:52:07;100185.63;;;21.34;30.55
12781;BME280;6454;43.304;24.344;2023-04-29T11:54:34;100181.44;;;21.40;30.32
12781;BME280;6454;43.304;24.344;2023-04-29T11:57:01;100175.19;;;21.59;30.88
12781;BME280;6454;43.304;24.344;2023-04-29T11:59:30;100172.66;;;21.69;30.52
12781;BME280;6454;43.304;24.344;2023-04-29T12:01:57;100046.06;;;20.83;29.12
12781;BME280;6454;43.304;24.344;2023-04-29T12:04:25;100160.78;;;21.84;29.84
12781;BME280;6454;43.304;24.344;2023-04-29T12:06:56;100153.84;;;21.91;30.67
12781;BME280;6454;43.304;24.344;2023-04-29T12:09:23;100160.16;;;21.56;30.53
12781;BME280;6454;43.304;24.344;2023-04-29T12:11:50;100156.50;;;21.52;30.87
12781;BME280;6454;43.304;24.344;2023-04-29T12:14:17;100159.09;;;21.45;30.49
12781;BME280;6454;43.304;24.344;2023-04-29T12:16:44;100163.13;;;21.32;31.68
12781;BME280;6454;43.304;24.344;2023-04-29T12:19:12;100154.19;;;20.92;29.64
12781;BME280;6454;43.304;24.344;2023-04-29T12:21:47;100158.47;;;20.74;30.36
12781;BME280;6454;43.304;24.344;2023-04-29T12:24:15;100157.03;;;20.80;30.75
12781;BME280;6454;43.304;24.344;2023-04-29T12:26:44;100142.00;;;20.77;29.84
12781;BME280;6454;43.304;24.344;2023-04-29T12:29:12;100152.19;;;21.20;30.38
12781;BME280;6454;43.304;24.344;2023-04-29T12:31:39;100157.00;;;21.07;29.72
12781;BME280;6454;43.304;24.344;2023-04-29T12:34:07;100149.91;;;21.06;30.51
12781;BME280;6454;43.304;24.344;2023-04-29T12:36:34;100119.25;;;20.80;31.73
12781;BME280;6454;43.304;24.344;2023-04-29T12:39:04;100152.09;;;21.01;31.25
12781;BME280;6454;43.304;24.344;2023-04-29T12:41:38;100155.53;;;20.98;30.96
12781;BME280;6454;43.304;24.344;2023-04-29T12:44:05;100151.44;;;20.92;32.89
12781;BME280;6454;43.304;24.344;2023-04-29T12:46:36;100132.25;;;20.36;30.73
12781;BME280;6454;43.304;24.344;2023-04-29T12:49:04;100151.22;;;20.53;32.28
12781;BME280;6454;43.304;24.344;2023-04-29T12:51:31;100148.28;;;20.46;32.94
12781;BME280;6454;43.304;24.344;2023-04-29T12:53:58;100145.47;;;20.31;31.47
12781;BME280;6454;43.304;24.344;2023-04-29T12:56:26;100147.09;;;20.20;32.07
12781;BME280;6454;43.304;24.344;2023-04-29T12:58:54;100146.56;;;20.14;32.38
12781;BME280;6454;43.304;24.344;2023-04-29T13:01:21;100145.81;;;20.02;31.79